createdAt,value
2018-07-21T00:00:48.699Z,6.33
2018-07-21T00:03:18.273Z,5.97
2018-07-21T00:05:47.964Z,5.50
2018-07-21T00:08:16.943Z,4.93
2018-07-21T00:10:46.016Z,5.07
2018-07-21T00:13:15.073Z,6.17
2018-07-21T00:15:44.115Z,4.60
2018-07-21T00:18:13.918Z,5.72
2018-07-21T00:20:42.927Z,5.00
2018-07-21T00:23:11.897Z,6.93
2018-07-21T00:25:40.989Z,6.30
2018-07-21T00:28:09.970Z,5.77
2018-07-21T00:30:38.991Z,4.47
2018-07-21T00:33:08.212Z,3.97
2018-07-21T00:35:37.068Z,3.53
2018-07-21T00:38:06.029Z,6.97
2018-07-21T00:40:35.126Z,6.80
2018-07-21T00:43:04.125Z,5.07
2018-07-21T00:45:33.118Z,5.60
2018-07-21T00:48:02.659Z,6.37
2018-07-21T00:50:31.816Z,5.47
2018-07-21T00:53:00.836Z,4.30
2018-07-21T00:55:30.233Z,5.80
2018-07-21T00:57:59.220Z,3.80
2018-07-21T01:00:28.195Z,4.57
2018-07-21T01:02:56.856Z,5.77
2018-07-21T01:05:25.792Z,4.70
2018-07-21T01:07:54.790Z,7.10
2018-07-21T01:10:23.783Z,4.97
2018-07-21T01:12:52.717Z,5.80
2018-07-21T01:15:21.717Z,11.47
2018-07-21T01:17:50.689Z,7.47
2018-07-21T01:20:19.963Z,6.00
2018-07-21T01:22:48.987Z,6.70
2018-07-21T01:25:18.080Z,5.70
2018-07-21T01:27:47.052Z,3.73
2018-07-21T01:30:16.056Z,5.33
2018-07-21T01:32:45.012Z,3.63
2018-07-21T01:35:13.978Z,6.97
2018-07-21T01:37:42.922Z,7.40
2018-07-21T01:40:11.933Z,6.30
2018-07-21T01:42:40.570Z,5.00
2018-07-21T01:45:09.493Z,6.40
2018-07-21T01:47:38.430Z,5.80
2018-07-21T01:50:07.727Z,5.10
2018-07-21T01:52:36.693Z,5.27
2018-07-21T01:55:05.743Z,5.63
2018-07-21T01:57:34.819Z,6.50
2018-07-21T02:00:03.877Z,5.37
2018-07-21T02:02:32.939Z,5.10
2018-07-21T02:05:01.902Z,5.87
2018-07-21T02:07:30.920Z,6.97
2018-07-21T02:10:00.025Z,7.10
2018-07-21T02:12:29.121Z,5.33
2018-07-21T02:14:58.072Z,5.20
2018-07-21T02:17:27.056Z,9.57
2018-07-21T02:19:56.041Z,5.80
2018-07-21T02:22:25.012Z,4.87
2018-07-21T02:24:54.030Z,5.83
2018-07-21T02:27:23.128Z,8.97
2018-07-21T02:29:52.441Z,5.80
2018-07-21T02:32:21.409Z,5.30
2018-07-21T02:34:50.496Z,4.23
2018-07-21T02:37:19.469Z,4.17
2018-07-21T02:39:48.434Z,7.73
2018-07-21T02:42:17.408Z,6.37
2018-07-21T02:44:46.370Z,6.33
2018-07-21T02:47:15.359Z,5.47
2018-07-21T02:49:44.374Z,5.07
2018-07-21T02:52:13.357Z,7.60
2018-07-21T02:54:47.838Z,4.20
2018-07-21T02:57:16.794Z,5.20
2018-07-21T02:59:45.777Z,6.37
2018-07-21T03:02:14.824Z,7.97
2018-07-21T03:04:43.835Z,5.70
2018-07-21T03:07:12.894Z,7.57
2018-07-21T03:09:41.872Z,6.73
2018-07-21T03:12:11.208Z,6.33
2018-07-21T03:14:40.204Z,11.13
2018-07-21T03:17:09.268Z,8.33
2018-07-21T03:19:38.244Z,7.57
2018-07-21T03:22:07.261Z,6.03
2018-07-21T03:24:36.224Z,6.97
2018-07-21T03:27:05.386Z,5.37
2018-07-21T03:29:34.345Z,5.30
2018-07-21T03:32:03.677Z,5.70
2018-07-21T03:34:33.111Z,5.10
2018-07-21T03:37:02.099Z,7.00
2018-07-21T03:39:31.150Z,6.23
2018-07-21T03:42:00.247Z,6.87
2018-07-21T03:44:29.236Z,8.47
2018-07-21T03:46:58.228Z,8.20
2018-07-21T03:49:26.915Z,4.73
2018-07-21T03:51:55.823Z,8.77
2018-07-21T03:54:24.822Z,4.17
2018-07-21T03:56:53.924Z,6.60
2018-07-21T03:59:22.943Z,7.37
2018-07-21T04:01:52.044Z,5.50
2018-07-21T04:04:22.014Z,7.17
2018-07-21T04:06:50.984Z,5.27
2018-07-21T04:09:20.460Z,7.90
2018-07-21T04:11:49.454Z,5.80
2018-07-21T04:14:18.511Z,7.00
2018-07-21T04:16:47.607Z,6.33
2018-07-21T04:19:16.668Z,5.97
2018-07-21T04:21:45.646Z,8.00
2018-07-21T04:24:14.678Z,4.93
2018-07-21T04:26:43.750Z,5.17
2018-07-21T04:29:12.707Z,7.73
2018-07-21T04:31:41.730Z,7.60
2018-07-21T04:34:10.829Z,9.03
2018-07-21T04:36:39.805Z,7.57
2018-07-21T04:39:10.407Z,11.00
2018-07-21T04:41:39.777Z,5.20
2018-07-21T04:44:08.874Z,5.23
2018-07-21T04:46:37.857Z,5.83
2018-07-21T04:49:06.871Z,7.47
2018-07-21T04:51:35.865Z,5.27
2018-07-21T04:54:04.865Z,8.27
2018-07-21T04:56:33.827Z,5.07
2018-07-21T04:59:02.818Z,7.67
2018-07-21T05:01:31.688Z,7.27
2018-07-21T05:04:00.644Z,7.43
2018-07-21T05:06:30.426Z,6.47
2018-07-21T05:08:59.418Z,7.73
2018-07-21T05:11:28.423Z,6.87
2018-07-21T05:13:57.220Z,5.57
2018-07-21T05:16:26.090Z,6.17
2018-07-21T05:18:55.077Z,4.83
2018-07-21T05:21:24.188Z,5.33
2018-07-21T05:23:53.179Z,6.10
2018-07-21T05:26:22.159Z,4.87
2018-07-21T05:28:51.214Z,8.23
2018-07-21T05:31:20.195Z,6.77
2018-07-21T05:33:49.173Z,7.27
2018-07-21T05:36:18.175Z,10.53
2018-07-21T05:38:47.654Z,5.10
2018-07-21T05:41:16.739Z,9.57
2018-07-21T05:43:45.832Z,6.23
2018-07-21T05:46:14.910Z,5.83
2018-07-21T05:48:43.946Z,5.37
2018-07-21T05:51:12.921Z,5.77
2018-07-21T05:53:41.988Z,8.33
2018-07-21T05:56:10.984Z,4.43
2018-07-21T05:58:39.987Z,6.00
2018-07-21T06:01:08.963Z,8.33
2018-07-21T06:03:37.645Z,5.40
2018-07-21T06:06:06.543Z,6.87
2018-07-21T06:08:35.604Z,4.60
2018-07-21T06:11:04.590Z,6.57
2018-07-21T06:13:33.626Z,5.03
2018-07-21T06:16:02.693Z,6.97
2018-07-21T06:18:31.829Z,6.93
2018-07-21T06:21:00.973Z,6.27
2018-07-21T06:23:30.008Z,5.10
2018-07-21T06:25:58.967Z,6.50
2018-07-21T06:28:29.421Z,6.37
2018-07-21T06:30:58.441Z,7.97
2018-07-21T06:33:27.806Z,5.37
2018-07-21T06:35:58.056Z,6.73
2018-07-21T06:38:27.365Z,7.70
2018-07-21T06:40:56.484Z,8.27
2018-07-21T06:43:25.509Z,5.77
2018-07-21T06:45:54.392Z,5.87
2018-07-21T06:48:23.326Z,5.83
2018-07-21T06:50:52.371Z,5.37
2018-07-21T06:53:21.576Z,5.17
2018-07-21T06:55:50.924Z,4.87
2018-07-21T06:58:20.164Z,9.20
2018-07-21T07:00:49.177Z,7.53
2018-07-21T07:03:18.130Z,3.70
2018-07-21T07:05:47.125Z,3.87
2018-07-21T07:08:16.091Z,5.47
2018-07-21T07:10:45.137Z,3.40
2018-07-21T07:13:14.181Z,5.40
2018-07-21T07:15:43.194Z,4.97
2018-07-21T07:18:12.580Z,5.83
2018-07-21T07:20:41.605Z,6.07
2018-07-21T07:23:11.204Z,3.37
2018-07-21T07:25:40.221Z,6.87
2018-07-21T07:28:09.232Z,3.10
2018-07-21T07:30:38.376Z,5.33
2018-07-21T07:33:07.363Z,5.10
2018-07-21T07:35:36.330Z,3.83
2018-07-21T07:38:06.068Z,8.13
2018-07-21T07:40:35.222Z,3.20
2018-07-21T07:43:04.228Z,2.55
2018-07-21T07:45:33.237Z,2.95
2018-07-21T07:48:02.264Z,2.40
2018-07-21T07:50:31.296Z,2.25
2018-07-21T07:53:00.542Z,6.62
2018-07-21T07:55:33.204Z,2.80
2018-07-21T07:58:03.836Z,5.42
2018-07-21T08:00:32.987Z,4.80
2018-07-21T08:03:02.524Z,4.13
2018-07-21T08:05:32.149Z,5.87
2018-07-21T08:08:01.250Z,2.97
2018-07-21T08:10:30.257Z,4.53
2018-07-21T08:12:59.229Z,2.53
2018-07-21T08:15:28.225Z,4.73
2018-07-21T08:17:57.335Z,3.63
2018-07-21T08:20:26.314Z,4.07
2018-07-21T08:22:55.272Z,3.27
2018-07-21T08:25:24.279Z,3.33
2018-07-21T08:27:53.524Z,3.33
2018-07-21T08:30:22.531Z,5.15
2018-07-21T08:32:51.587Z,3.22
2018-07-21T08:35:20.605Z,2.40
2018-07-21T08:37:49.578Z,4.12
2018-07-21T08:40:18.291Z,4.80
2018-07-21T08:42:47.189Z,6.33
2018-07-21T08:45:16.157Z,2.75
2018-07-21T08:47:45.280Z,3.58
2018-07-21T08:50:14.283Z,4.00
2018-07-21T08:52:43.380Z,6.03
2018-07-21T08:55:12.493Z,3.85
2018-07-21T08:57:41.577Z,3.20
2018-07-21T09:00:10.616Z,7.50
2018-07-21T09:02:39.692Z,6.67
2018-07-21T09:05:08.667Z,5.05
2018-07-21T09:07:37.650Z,4.62
2018-07-21T09:10:06.763Z,4.40
2018-07-21T09:12:35.747Z,4.33
2018-07-21T09:15:04.826Z,2.85
2018-07-21T09:17:33.865Z,4.25
2018-07-21T09:20:02.944Z,3.67
2018-07-21T09:22:31.921Z,4.28
2018-07-21T09:25:00.921Z,5.37
2018-07-21T09:27:29.603Z,3.33
2018-07-21T09:29:58.472Z,4.75
2018-07-21T09:32:30.284Z,3.62
2018-07-21T09:34:59.358Z,4.35
2018-07-21T09:37:28.388Z,4.45
2018-07-21T09:39:57.326Z,3.52
2018-07-21T09:42:26.293Z,3.60
2018-07-21T09:44:55.250Z,3.22
2018-07-21T09:47:24.311Z,4.28
2018-07-21T09:49:53.427Z,4.37
2018-07-21T09:52:22.460Z,6.47
2018-07-21T09:54:51.404Z,4.60
2018-07-21T09:57:20.437Z,5.03
2018-07-21T09:59:50.367Z,6.00
2018-07-21T10:02:19.347Z,3.83
2018-07-21T10:04:48.332Z,5.65
2018-07-21T10:07:17.450Z,6.92
2018-07-21T10:09:46.075Z,3.92
2018-07-21T10:12:15.068Z,6.95
2018-07-21T10:14:44.555Z,4.28
2018-07-21T10:17:13.530Z,4.08
2018-07-21T10:19:42.492Z,4.17
2018-07-21T10:22:11.484Z,3.98
2018-07-21T10:24:45.881Z,4.50
2018-07-21T10:27:15.897Z,4.78
2018-07-21T10:29:44.937Z,4.40
2018-07-21T10:32:14.000Z,3.92
2018-07-21T10:34:42.983Z,4.60
2018-07-21T10:37:12.092Z,4.33
2018-07-21T10:39:41.163Z,4.33
2018-07-21T10:42:10.183Z,4.12
2018-07-21T10:44:39.372Z,5.20
2018-07-21T10:47:08.094Z,4.45
2018-07-21T10:49:36.983Z,3.83
2018-07-21T10:52:05.955Z,5.47
2018-07-21T10:54:35.034Z,4.85
2018-07-21T10:57:04.028Z,6.05
2018-07-21T10:59:33.032Z,4.00
2018-07-21T11:02:02.047Z,5.12
2018-07-21T11:04:31.129Z,6.58
2018-07-21T11:07:00.182Z,4.72
2018-07-21T11:09:29.170Z,6.13
2018-07-21T11:11:58.255Z,4.20
2018-07-21T11:14:27.284Z,4.17
2018-07-21T11:16:56.275Z,5.22
2018-07-21T11:19:25.417Z,8.75
2018-07-21T11:21:54.475Z,4.37
2018-07-21T11:24:23.623Z,5.27
2018-07-21T11:26:52.739Z,5.72
2018-07-21T11:29:21.886Z,6.65
2018-07-21T11:31:50.883Z,4.92
2018-07-21T11:34:19.883Z,5.12
2018-07-21T11:36:48.980Z,4.90
2018-07-21T11:39:18.105Z,5.13
2018-07-21T11:41:47.112Z,3.70
2018-07-21T11:44:16.175Z,4.47
2018-07-21T11:46:45.161Z,5.00
2018-07-21T11:49:14.188Z,6.62
2018-07-21T11:51:43.264Z,4.42
2018-07-21T11:54:12.788Z,4.78
2018-07-21T11:56:41.979Z,4.40
2018-07-21T11:59:10.997Z,6.97
2018-07-21T12:01:39.969Z,4.22
2018-07-21T12:04:09.028Z,4.97
2018-07-21T12:06:38.033Z,7.33
2018-07-21T12:09:08.365Z,5.33
2018-07-21T12:11:37.350Z,5.40
2018-07-21T12:14:06.391Z,5.28
2018-07-21T12:16:35.436Z,4.50
2018-07-21T12:19:04.745Z,4.97
2018-07-21T12:21:33.766Z,6.40
2018-07-21T12:24:02.757Z,4.65
2018-07-21T12:26:31.746Z,5.28
2018-07-21T12:29:00.707Z,5.42
2018-07-21T12:31:29.811Z,4.30
2018-07-21T12:33:59.035Z,4.67
2018-07-21T12:36:28.265Z,5.80
2018-07-21T12:38:57.279Z,8.63
2018-07-21T12:41:26.450Z,5.70
2018-07-21T12:43:55.464Z,6.03
2018-07-21T12:46:24.723Z,5.00
2018-07-21T12:48:53.738Z,6.57
2018-07-21T12:51:22.762Z,5.93
2018-07-21T12:53:51.991Z,6.70
2018-07-21T12:56:21.021Z,5.30
2018-07-21T12:58:50.042Z,6.40
2018-07-21T13:01:20.143Z,7.23
2018-07-21T13:03:49.184Z,5.30
2018-07-21T13:06:18.212Z,7.77
2018-07-21T13:08:46.891Z,5.57
2018-07-21T13:11:15.779Z,4.43
2018-07-21T13:13:45.117Z,5.30
2018-07-21T13:16:14.165Z,8.33
2018-07-21T13:18:43.174Z,4.90
2018-07-21T13:21:12.568Z,4.28
2018-07-21T13:23:41.580Z,6.00
2018-07-21T13:26:10.556Z,4.43
2018-07-21T13:28:39.531Z,6.70
2018-07-21T13:31:08.537Z,6.43
2018-07-21T13:33:37.521Z,4.60
2018-07-21T13:36:06.587Z,8.83
2018-07-21T13:38:35.573Z,5.43
2018-07-21T13:41:04.937Z,5.87
2018-07-21T13:43:33.933Z,8.47
2018-07-21T13:46:03.006Z,5.73
2018-07-21T13:48:31.980Z,10.27
2018-07-21T13:51:00.965Z,4.73
2018-07-21T13:53:29.914Z,5.77
2018-07-21T13:55:58.886Z,5.73
2018-07-21T13:58:27.879Z,7.73
2018-07-21T14:00:56.816Z,6.37
2018-07-21T14:03:25.798Z,4.90
2018-07-21T14:05:54.800Z,9.63
2018-07-21T14:08:23.822Z,6.87
2018-07-21T14:10:52.847Z,9.27
2018-07-21T14:13:21.886Z,8.47
2018-07-21T14:15:50.965Z,5.50
2018-07-21T14:18:20.084Z,6.20
2018-07-21T14:20:49.088Z,6.73
2018-07-21T14:23:18.163Z,8.10
2018-07-21T14:25:47.679Z,4.97
2018-07-21T14:28:16.662Z,4.87
2018-07-21T14:30:45.732Z,5.13
2018-07-21T14:33:14.478Z,4.60
2018-07-21T14:35:43.409Z,6.27
2018-07-21T14:38:12.445Z,5.60
2018-07-21T14:40:41.447Z,4.97
2018-07-21T14:43:10.385Z,5.57
2018-07-21T14:45:39.419Z,5.70
2018-07-21T14:48:08.503Z,6.63
2018-07-21T14:50:37.607Z,8.70
2018-07-21T14:53:06.255Z,6.70
2018-07-21T14:55:35.224Z,8.43
2018-07-21T14:58:04.267Z,4.87
2018-07-21T15:00:33.242Z,6.53
2018-07-21T15:03:02.223Z,5.97
2018-07-21T15:05:31.265Z,6.17
2018-07-21T15:08:00.251Z,6.40
2018-07-21T15:10:29.227Z,5.87
2018-07-21T15:12:58.247Z,7.53
2018-07-21T15:15:27.264Z,7.73
2018-07-21T15:17:55.918Z,8.27
2018-07-21T15:20:24.817Z,5.97
2018-07-21T15:22:53.832Z,7.77
2018-07-21T15:25:22.847Z,8.43
2018-07-21T15:27:51.960Z,4.80
2018-07-21T15:30:21.046Z,7.47
2018-07-21T15:32:49.805Z,6.63
2018-07-21T15:35:18.763Z,7.37
2018-07-21T15:37:47.759Z,10.73
2018-07-21T15:40:16.802Z,8.97
2018-07-21T15:42:45.753Z,7.77
2018-07-21T15:45:14.767Z,9.00
2018-07-21T15:47:44.158Z,9.70
2018-07-21T15:50:13.228Z,7.73
2018-07-21T15:52:41.926Z,6.43
2018-07-21T15:55:10.945Z,5.90
2018-07-21T15:57:39.876Z,9.37
2018-07-21T16:00:08.953Z,7.83
2018-07-21T16:02:38.001Z,7.27
2018-07-21T16:05:06.816Z,7.03
2018-07-21T16:07:35.735Z,8.13
2018-07-21T16:10:12.008Z,7.37
2018-07-21T16:12:40.964Z,7.93
2018-07-21T16:15:10.324Z,6.10
2018-07-21T16:17:39.302Z,5.77
2018-07-21T16:20:08.672Z,10.33
2018-07-21T16:22:37.661Z,7.63
2018-07-21T16:25:06.674Z,7.17
2018-07-21T16:27:35.656Z,6.73
2018-07-21T16:30:04.900Z,7.37
2018-07-21T16:32:34.033Z,6.33
2018-07-21T16:35:03.049Z,11.70
2018-07-21T16:37:32.148Z,6.33
2018-07-21T16:40:01.234Z,7.33
2018-07-21T16:42:30.225Z,7.57
2018-07-21T16:44:59.792Z,7.27
2018-07-21T16:47:28.788Z,7.57
2018-07-21T16:49:57.908Z,11.73
2018-07-21T16:52:26.907Z,5.67
2018-07-21T16:54:55.951Z,10.70
2018-07-21T16:57:24.947Z,9.50
2018-07-21T16:59:53.752Z,6.70
2018-07-21T17:02:22.850Z,8.43
2018-07-21T17:04:51.940Z,8.60
2018-07-21T17:07:21.039Z,11.23
2018-07-21T17:09:50.081Z,7.47
2018-07-21T17:12:19.287Z,6.10
2018-07-21T17:14:48.384Z,7.73
2018-07-21T17:17:17.390Z,5.87
2018-07-21T17:19:46.379Z,10.40
2018-07-21T17:22:15.430Z,14.87
2018-07-21T17:24:44.448Z,6.93
2018-07-21T17:27:13.391Z,6.13
2018-07-21T17:29:42.381Z,6.97
2018-07-21T17:32:11.345Z,7.33
2018-07-21T17:34:40.361Z,8.90
2018-07-21T17:37:09.304Z,6.73
2018-07-21T17:39:38.307Z,6.30
2018-07-21T17:42:07.411Z,5.50
2018-07-21T17:44:36.509Z,8.67
2018-07-21T17:47:05.774Z,7.20
2018-07-21T17:49:34.795Z,7.43
2018-07-21T17:52:04.008Z,7.93
2018-07-21T17:54:33.013Z,7.07
2018-07-21T17:57:02.105Z,11.20
2018-07-21T17:59:31.106Z,7.00
2018-07-21T18:02:00.104Z,10.97
2018-07-21T18:04:30.012Z,5.50
2018-07-21T18:06:59.034Z,7.80
2018-07-21T18:09:28.052Z,7.20
2018-07-21T18:11:57.045Z,10.47
2018-07-21T18:14:26.026Z,10.47
2018-07-21T18:16:55.020Z,8.17
2018-07-21T18:19:23.996Z,8.47
2018-07-21T18:21:52.951Z,8.97
2018-07-21T18:24:21.911Z,7.73
2018-07-21T18:26:50.946Z,6.33
2018-07-21T18:29:19.962Z,8.30
2018-07-21T18:31:49.309Z,5.87
2018-07-21T18:34:18.383Z,8.20
2018-07-21T18:36:47.431Z,8.50
2018-07-21T18:39:16.562Z,8.30
2018-07-21T18:41:45.637Z,7.83
2018-07-21T18:44:14.620Z,9.53
2018-07-21T18:46:43.708Z,8.20
2018-07-21T18:49:12.705Z,5.67
2018-07-21T18:51:41.839Z,8.83
2018-07-21T18:54:10.844Z,7.83
2018-07-21T18:56:39.828Z,9.80
2018-07-21T18:59:08.795Z,7.50
2018-07-21T19:01:37.804Z,8.80
2018-07-21T19:04:06.863Z,8.37
2018-07-21T19:06:35.950Z,9.00
2018-07-21T19:09:07.824Z,8.40
2018-07-21T19:11:37.032Z,7.73
2018-07-21T19:14:06.323Z,8.40
2018-07-21T19:16:40.027Z,8.00
2018-07-21T19:19:09.241Z,8.57
2018-07-21T19:21:38.358Z,7.90
2018-07-21T19:24:07.353Z,12.27
2018-07-21T19:26:41.967Z,9.63
2018-07-21T19:29:11.041Z,8.50
2018-07-21T19:31:44.284Z,7.43
2018-07-21T19:34:13.272Z,6.93
2018-07-21T19:36:42.252Z,8.27
2018-07-21T19:39:11.385Z,9.00
2018-07-21T19:41:45.725Z,8.57
2018-07-21T19:44:14.708Z,9.37
2018-07-21T19:46:43.725Z,7.67
2018-07-21T19:49:12.785Z,9.33
2018-07-21T19:51:41.741Z,8.33
2018-07-21T19:54:10.795Z,10.53
2018-07-21T19:56:40.017Z,9.97
2018-07-21T19:59:09.015Z,10.80
2018-07-21T20:01:38.114Z,7.43
2018-07-21T20:04:07.256Z,9.60
2018-07-21T20:06:36.351Z,11.13
2018-07-21T20:09:09.039Z,7.90
2018-07-21T20:11:38.573Z,8.13
2018-07-21T20:14:07.794Z,7.13
2018-07-21T20:16:38.773Z,8.90
2018-07-21T20:19:07.903Z,7.53
2018-07-21T20:21:37.037Z,9.30
2018-07-21T20:24:06.279Z,9.30
2018-07-21T20:26:35.273Z,10.97
2018-07-21T20:29:04.344Z,6.73
2018-07-21T20:31:34.293Z,9.00
2018-07-21T20:34:03.498Z,10.10
2018-07-21T20:36:32.489Z,8.40
2018-07-21T20:39:02.462Z,9.83
2018-07-21T20:41:31.797Z,11.13
2018-07-21T20:44:01.273Z,7.87
2018-07-21T20:46:30.253Z,8.20
2018-07-21T20:48:59.346Z,9.83
2018-07-21T20:51:28.544Z,8.17
2018-07-21T20:53:57.606Z,8.80
2018-07-21T20:56:26.598Z,8.37
2018-07-21T20:58:55.590Z,8.17
2018-07-21T21:01:25.616Z,6.87
2018-07-21T21:03:54.594Z,8.50
2018-07-21T21:06:23.719Z,7.23
2018-07-21T21:08:52.756Z,12.77
2018-07-21T21:11:21.934Z,12.63
2018-07-21T21:13:50.909Z,10.13
2018-07-21T21:16:20.000Z,8.53
2018-07-21T21:18:49.071Z,7.33
2018-07-21T21:21:18.209Z,10.10
2018-07-21T21:23:47.281Z,10.90
2018-07-21T21:26:16.309Z,9.67
2018-07-21T21:28:45.398Z,10.77
2018-07-21T21:31:14.546Z,14.50
2018-07-21T21:33:43.581Z,10.63
2018-07-21T21:36:12.690Z,10.63
2018-07-21T21:38:41.712Z,11.00
2018-07-21T21:41:10.795Z,8.43
2018-07-21T21:43:40.248Z,13.30
2018-07-21T21:46:09.238Z,9.57
2018-07-21T21:48:38.289Z,11.27
2018-07-21T21:51:07.291Z,9.20
2018-07-21T21:53:36.405Z,9.47
2018-07-21T21:56:05.876Z,9.17
2018-07-21T21:58:34.921Z,15.93
2018-07-21T22:01:06.960Z,10.53
2018-07-21T22:03:36.259Z,12.27
2018-07-21T22:06:05.387Z,11.33
2018-07-21T22:08:34.641Z,15.37
2018-07-21T22:11:04.280Z,15.77
2018-07-21T22:13:33.345Z,11.03
2018-07-21T22:16:02.368Z,9.93
2018-07-21T22:18:31.745Z,9.20
2018-07-21T22:21:00.787Z,14.07
2018-07-21T22:23:29.770Z,15.97
2018-07-21T22:25:58.764Z,16.33
2018-07-21T22:28:27.867Z,9.07
2018-07-21T22:30:56.855Z,10.67
2018-07-21T22:33:25.845Z,12.40
2018-07-21T22:35:54.857Z,13.33
2018-07-21T22:38:23.839Z,13.60
2018-07-21T22:40:52.817Z,10.73
2018-07-21T22:43:22.056Z,7.83
2018-07-21T22:45:51.149Z,10.47
2018-07-21T22:48:20.226Z,8.87
2018-07-21T22:50:49.238Z,8.93
2018-07-21T22:53:18.229Z,10.93
2018-07-21T22:55:47.299Z,11.30
2018-07-21T22:58:16.336Z,15.80
2018-07-21T23:00:45.569Z,9.33
2018-07-21T23:03:15.436Z,9.37
2018-07-21T23:05:44.417Z,8.30
2018-07-21T23:08:13.406Z,10.40
2018-07-21T23:10:42.406Z,8.93
2018-07-21T23:13:11.467Z,10.27
2018-07-21T23:15:40.525Z,8.63
2018-07-21T23:18:09.537Z,13.90
2018-07-21T23:20:38.498Z,9.30
2018-07-21T23:23:07.476Z,9.03
2018-07-21T23:25:36.446Z,10.13
2018-07-21T23:28:05.429Z,9.13
2018-07-21T23:30:35.022Z,10.17
2018-07-21T23:33:04.056Z,8.77
2018-07-21T23:35:33.719Z,10.80
2018-07-21T23:38:02.439Z,9.93
2018-07-21T23:40:31.307Z,8.47
2018-07-21T23:43:00.269Z,10.13
2018-07-21T23:45:29.252Z,9.10
2018-07-21T23:47:58.221Z,11.60
2018-07-21T23:50:27.315Z,9.10
2018-07-21T23:52:56.276Z,12.50
2018-07-21T23:55:25.227Z,7.97
2018-07-21T23:57:54.219Z,15.13
